sensor_id;sensor_type;location;lat;lon;timestamp;pressure;altitude;pressure_sealevel;temperature;humidity
77118;BME280;66072;50.238;19.228;2023-02-18T00:01:01;98135.88;;;8.05;90.40
77118;BME280;66072;50.238;19.228;2023-02-18T00:03:29;98140.58;;;8.07;90.33
77118;BME280;66072;50.238;19.228;2023-02-18T00:05:56;98139.08;;;8.06;90.18
77118;BME280;66072;50.238;19.228;2023-02-18T00:08:24;98145.62;;;8.08;89.95
77118;BME280;66072;50.238;19.228;2023-02-18T00:10:52;98139.23;;;8.11;89.95
77118;BME280;66072;50.238;19.228;2023-02-18T00:13:19;98142.04;;;8.13;89.81
77118;BME280;66072;50.238;19.228;2023-02-18T00:15:47;98133.08;;;8.15;89.55
77118;BME280;66072;50.238;19.228;2023-02-18T00:18:14;98132.69;;;8.17;89.48
77118;BME280;66072;50.238;19.228;2023-02-18T00:20:42;98132.16;;;8.17;89.39
77118;BME280;66072;50.238;19.228;2023-02-18T00:23:10;98137.27;;;8.21;89.00
77118;BME280;66072;50.238;19.228;2023-02-18T00:25:37;98144.15;;;8.24;89.11
77118;BME280;66072;50.238;19.228;2023-02-18T00:28:05;98139.84;;;8.25;88.86
77118;BME280;66072;50.238;19.228;2023-02-18T00:30:33;98142.98;;;8.26;88.75
77118;BME280;66072;50.238;19.228;2023-02-18T00:33:00;98150.39;;;8.29;88.73
77118;BME280;66072;50.238;19.228;2023-02-18T00:35:28;98157.84;;;8.30;88.77
77118;BME280;66072;50.238;19.228;2023-02-18T00:37:55;98165.24;;;8.32;88.68
77118;BME280;66072;50.238;19.228;2023-02-18T00:40:23;98185.73;;;8.36;88.68
77118;BME280;66072;50.238;19.228;2023-02-18T00:42:51;98205.33;;;8.40;88.72
77118;BME280;66072;50.238;19.228;2023-02-18T00:45:18;98226.23;;;8.42;88.77
77118;BME280;66072;50.238;19.228;2023-02-18T00:47:46;98241.40;;;8.46;88.51
77118;BME280;66072;50.238;19.228;2023-02-18T00:50:13;98250.30;;;8.45;87.17
77118;BME280;66072;50.238;19.228;2023-02-18T00:52:41;98236.41;;;8.43;86.60
77118;BME280;66072;50.238;19.228;2023-02-18T00:55:09;98250.79;;;8.41;84.83
77118;BME280;66072;50.238;19.228;2023-02-18T00:57:36;98241.29;;;8.40;84.87
77118;BME280;66072;50.238;19.228;2023-02-18T01:00:05;98242.28;;;8.32;85.40
77118;BME280;66072;50.238;19.228;2023-02-18T01:02:33;98241.41;;;8.28;84.21
77118;BME280;66072;50.238;19.228;2023-02-18T01:05:01;98239.27;;;8.26;82.94
77118;BME280;66072;50.238;19.228;2023-02-18T01:07:29;98253.54;;;8.27;81.27
77118;BME280;66072;50.238;19.228;2023-02-18T01:09:56;98248.55;;;8.24;81.32
77118;BME280;66072;50.238;19.228;2023-02-18T01:12:24;98242.09;;;8.20;81.05
77118;BME280;66072;50.238;19.228;2023-02-18T01:14:52;98238.64;;;8.17;80.57
77118;BME280;66072;50.238;19.228;2023-02-18T01:17:19;98251.05;;;8.13;80.82
77118;BME280;66072;50.238;19.228;2023-02-18T01:19:47;98246.10;;;8.04;80.56
77118;BME280;66072;50.238;19.228;2023-02-18T01:22:14;98252.29;;;8.03;80.44
77118;BME280;66072;50.238;19.228;2023-02-18T01:24:42;98247.87;;;7.99;80.30
77118;BME280;66072;50.238;19.228;2023-02-18T01:27:12;98253.24;;;7.96;80.37
77118;BME280;66072;50.238;19.228;2023-02-18T01:29:40;98256.93;;;7.98;79.98
77118;BME280;66072;50.238;19.228;2023-02-18T01:32:07;98246.13;;;8.00;79.17
77118;BME280;66072;50.238;19.228;2023-02-18T01:34:35;98245.44;;;8.04;78.59
77118;BME280;66072;50.238;19.228;2023-02-18T01:37:03;98243.45;;;8.03;78.21
77118;BME280;66072;50.238;19.228;2023-02-18T01:39:30;98245.03;;;8.01;77.96
77118;BME280;66072;50.238;19.228;2023-02-18T01:41:58;98241.14;;;8.05;76.26
77118;BME280;66072;50.238;19.228;2023-02-18T01:44:27;98255.33;;;8.08;76.39
77118;BME280;66072;50.238;19.228;2023-02-18T01:46:55;98257.13;;;8.06;76.24
77118;BME280;66072;50.238;19.228;2023-02-18T01:49:26;98254.52;;;8.07;75.84
77118;BME280;66072;50.238;19.228;2023-02-18T01:52:04;98259.23;;;8.08;74.89
77118;BME280;66072;50.238;19.228;2023-02-18T01:54:36;98263.80;;;8.10;75.39
77118;BME280;66072;50.238;19.228;2023-02-18T01:57:13;98262.08;;;8.01;75.38
77118;BME280;66072;50.238;19.228;2023-02-18T01:59:46;98271.14;;;7.96;75.58
77118;BME280;66072;50.238;19.228;2023-02-18T02:02:23;98263.06;;;7.89;73.96
77118;BME280;66072;50.238;19.228;2023-02-18T02:04:51;98266.69;;;7.92;73.38
77118;BME280;66072;50.238;19.228;2023-02-18T02:07:21;98255.63;;;7.88;72.32
77118;BME280;66072;50.238;19.228;2023-02-18T02:09:51;98258.27;;;7.94;71.19
77118;BME280;66072;50.238;19.228;2023-02-18T02:12:42;98261.30;;;7.91;71.21
77118;BME280;66072;50.238;19.228;2023-02-18T02:15:38;98247.02;;;7.86;69.94
77118;BME280;66072;50.238;19.228;2023-02-18T02:18:22;98248.33;;;7.87;67.63
77118;BME280;66072;50.238;19.228;2023-02-18T02:27:13;98252.64;;;8.03;61.46
77118;BME280;66072;50.238;19.228;2023-02-18T02:32:23;98264.02;;;7.95;61.25
77118;BME280;66072;50.238;19.228;2023-02-18T02:35:10;98261.98;;;7.87;60.36
77118;BME280;66072;50.238;19.228;2023-02-18T02:38:03;98263.29;;;7.79;60.21
77118;BME280;66072;50.238;19.228;2023-02-18T02:40:37;98268.46;;;7.77;59.76
77118;BME280;66072;50.238;19.228;2023-02-18T02:43:16;98268.79;;;7.73;59.82
77118;BME280;66072;50.238;19.228;2023-02-18T02:48:59;98279.27;;;7.71;59.80
77118;BME280;66072;50.238;19.228;2023-02-18T02:51:40;98279.66;;;7.69;60.44
77118;BME280;66072;50.238;19.228;2023-02-18T02:54:16;98279.73;;;7.63;62.11
77118;BME280;66072;50.238;19.228;2023-02-18T02:56:44;98285.20;;;7.58;63.07
77118;BME280;66072;50.238;19.228;2023-02-18T02:59:16;98278.18;;;7.54;64.33
77118;BME280;66072;50.238;19.228;2023-02-18T03:10:16;98294.91;;;7.34;69.60
77118;BME280;66072;50.238;19.228;2023-02-18T03:18:59;98302.91;;;7.20;72.61
77118;BME280;66072;50.238;19.228;2023-02-18T03:21:32;98305.81;;;7.15;72.64
77118;BME280;66072;50.238;19.228;2023-02-18T03:24:06;98311.18;;;7.13;72.51
77118;BME280;66072;50.238;19.228;2023-02-18T03:26:39;98317.27;;;7.18;70.07
77118;BME280;66072;50.238;19.228;2023-02-18T03:29:10;98318.53;;;7.26;69.27
77118;BME280;66072;50.238;19.228;2023-02-18T03:31:42;98323.12;;;7.26;69.00
77118;BME280;66072;50.238;19.228;2023-02-18T03:34:16;98324.23;;;7.23;67.75
77118;BME280;66072;50.238;19.228;2023-02-18T03:36:46;98325.97;;;7.22;66.74
77118;BME280;66072;50.238;19.228;2023-02-18T03:39:17;98330.33;;;7.19;66.69
77118;BME280;66072;50.238;19.228;2023-02-18T03:41:45;98334.40;;;7.10;66.76
77118;BME280;66072;50.238;19.228;2023-02-18T03:44:13;98333.71;;;7.05;66.11
77118;BME280;66072;50.238;19.228;2023-02-18T03:46:43;98339.69;;;6.99;66.53
77118;BME280;66072;50.238;19.228;2023-02-18T03:49:13;98338.89;;;6.92;67.08
77118;BME280;66072;50.238;19.228;2023-02-18T03:51:41;98336.45;;;6.85;67.74
77118;BME280;66072;50.238;19.228;2023-02-18T03:54:10;98335.87;;;6.82;68.81
77118;BME280;66072;50.238;19.228;2023-02-18T03:56:37;98337.19;;;6.78;69.67
77118;BME280;66072;50.238;19.228;2023-02-18T03:59:05;98341.40;;;6.73;71.09
77118;BME280;66072;50.238;19.228;2023-02-18T04:01:33;98331.66;;;6.70;72.31
77118;BME280;66072;50.238;19.228;2023-02-18T04:04:00;98333.80;;;6.67;72.89
77118;BME280;66072;50.238;19.228;2023-02-18T04:06:28;98332.61;;;6.61;74.12
77118;BME280;66072;50.238;19.228;2023-02-18T04:08:56;98339.39;;;6.62;74.16
77118;BME280;66072;50.238;19.228;2023-02-18T04:11:24;98336.34;;;6.62;73.83
77118;BME280;66072;50.238;19.228;2023-02-18T04:13:51;98341.83;;;6.61;73.88
77118;BME280;66072;50.238;19.228;2023-02-18T04:16:19;98343.67;;;6.61;72.76
77118;BME280;66072;50.238;19.228;2023-02-18T04:18:46;98343.88;;;6.65;72.26
77118;BME280;66072;50.238;19.228;2023-02-18T04:21:14;98343.62;;;6.68;72.53
77118;BME280;66072;50.238;19.228;2023-02-18T04:23:42;98339.72;;;6.73;73.10
77118;BME280;66072;50.238;19.228;2023-02-18T04:26:09;98350.48;;;6.71;73.86
77118;BME280;66072;50.238;19.228;2023-02-18T04:28:37;98343.18;;;6.61;73.64
77118;BME280;66072;50.238;19.228;2023-02-18T04:31:05;98350.67;;;6.55;72.48
77118;BME280;66072;50.238;19.228;2023-02-18T04:33:33;98356.92;;;6.51;70.11
77118;BME280;66072;50.238;19.228;2023-02-18T04:36:00;98355.66;;;6.53;65.94
77118;BME280;66072;50.238;19.228;2023-02-18T04:38:28;98352.98;;;6.62;62.82
77118;BME280;66072;50.238;19.228;2023-02-18T04:40:56;98355.45;;;6.65;59.73
77118;BME280;66072;50.238;19.228;2023-02-18T04:43:23;98364.81;;;6.70;57.34
77118;BME280;66072;50.238;19.228;2023-02-18T04:45:51;98357.05;;;6.73;55.81
77118;BME280;66072;50.238;19.228;2023-02-18T04:48:18;98359.03;;;6.69;55.97
77118;BME280;66072;50.238;19.228;2023-02-18T04:50:46;98360.95;;;6.63;54.70
77118;BME280;66072;50.238;19.228;2023-02-18T04:53:14;98366.95;;;6.61;53.19
77118;BME280;66072;50.238;19.228;2023-02-18T04:55:41;98366.23;;;6.57;52.54
77118;BME280;66072;50.238;19.228;2023-02-18T04:58:09;98373.65;;;6.54;51.76
77118;BME280;66072;50.238;19.228;2023-02-18T05:00:36;98374.23;;;6.52;50.30
77118;BME280;66072;50.238;19.228;2023-02-18T05:03:04;98372.56;;;6.56;49.48
77118;BME280;66072;50.238;19.228;2023-02-18T05:05:32;98370.48;;;6.57;49.27
77118;BME280;66072;50.238;19.228;2023-02-18T05:07:59;98372.18;;;6.57;49.72
77118;BME280;66072;50.238;19.228;2023-02-18T05:10:27;98376.25;;;6.53;50.60
77118;BME280;66072;50.238;19.228;2023-02-18T05:12:54;98378.60;;;6.42;51.26
77118;BME280;66072;50.238;19.228;2023-02-18T05:15:22;98372.15;;;6.31;51.49
77118;BME280;66072;50.238;19.228;2023-02-18T05:17:50;98370.05;;;6.22;51.48
77118;BME280;66072;50.238;19.228;2023-02-18T05:20:17;98378.09;;;6.20;51.78
77118;BME280;66072;50.238;19.228;2023-02-18T05:22:45;98373.29;;;6.16;52.37
77118;BME280;66072;50.238;19.228;2023-02-18T05:25:12;98374.46;;;6.11;52.61
77118;BME280;66072;50.238;19.228;2023-02-18T05:27:40;98376.17;;;6.10;53.17
77118;BME280;66072;50.238;19.228;2023-02-18T05:30:08;98374.38;;;6.08;53.01
77118;BME280;66072;50.238;19.228;2023-02-18T05:32:36;98374.65;;;6.05;53.02
77118;BME280;66072;50.238;19.228;2023-02-18T05:35:03;98374.36;;;6.03;53.04
77118;BME280;66072;50.238;19.228;2023-02-18T05:37:31;98375.91;;;6.02;52.89
77118;BME280;66072;50.238;19.228;2023-02-18T05:39:59;98373.63;;;5.99;53.00
77118;BME280;66072;50.238;19.228;2023-02-18T05:42:26;98374.61;;;6.00;52.23
77118;BME280;66072;50.238;19.228;2023-02-18T05:44:54;98369.14;;;6.02;51.82
77118;BME280;66072;50.238;19.228;2023-02-18T05:47:22;98377.34;;;6.06;52.10
77118;BME280;66072;50.238;19.228;2023-02-18T05:49:49;98385.63;;;6.01;51.83
77118;BME280;66072;50.238;19.228;2023-02-18T05:52:17;98392.17;;;5.98;51.89
77118;BME280;66072;50.238;19.228;2023-02-18T05:54:45;98389.02;;;5.96;51.95
77118;BME280;66072;50.238;19.228;2023-02-18T05:57:13;98382.98;;;5.92;52.43
77118;BME280;66072;50.238;19.228;2023-02-18T05:59:41;98386.51;;;5.87;53.18
77118;BME280;66072;50.238;19.228;2023-02-18T06:02:08;98384.34;;;5.80;53.80
77118;BME280;66072;50.238;19.228;2023-02-18T06:04:36;98389.95;;;5.73;54.09
77118;BME280;66072;50.238;19.228;2023-02-18T06:07:04;98395.91;;;5.73;54.01
77118;BME280;66072;50.238;19.228;2023-02-18T06:09:31;98401.35;;;5.73;53.98
77118;BME280;66072;50.238;19.228;2023-02-18T06:11:59;98394.27;;;5.82;51.73
77118;BME280;66072;50.238;19.228;2023-02-18T06:14:27;98401.27;;;5.94;52.45
77118;BME280;66072;50.238;19.228;2023-02-18T06:16:54;98399.73;;;6.01;51.24
77118;BME280;66072;50.238;19.228;2023-02-18T06:19:22;98400.16;;;6.09;50.53
77118;BME280;66072;50.238;19.228;2023-02-18T06:21:50;98405.11;;;6.14;50.31
77118;BME280;66072;50.238;19.228;2023-02-18T06:24:17;98402.17;;;6.21;50.32
77118;BME280;66072;50.238;19.228;2023-02-18T06:26:45;98406.80;;;6.26;50.74
77118;BME280;66072;50.238;19.228;2023-02-18T06:29:12;98408.02;;;6.30;50.59
77118;BME280;66072;50.238;19.228;2023-02-18T06:31:40;98410.91;;;6.36;50.31
77118;BME280;66072;50.238;19.228;2023-02-18T06:34:08;98410.71;;;6.42;49.51
77118;BME280;66072;50.238;19.228;2023-02-18T06:36:35;98403.98;;;6.52;49.76
77118;BME280;66072;50.238;19.228;2023-02-18T06:39:04;98404.85;;;6.56;49.88
77118;BME280;66072;50.238;19.228;2023-02-18T06:41:32;98411.58;;;6.58;49.95
77118;BME280;66072;50.238;19.228;2023-02-18T06:44:00;98411.41;;;6.63;49.48
77118;BME280;66072;50.238;19.228;2023-02-18T06:46:27;98406.10;;;6.70;49.67
77118;BME280;66072;50.238;19.228;2023-02-18T06:48:55;98403.03;;;6.76;49.11
77118;BME280;66072;50.238;19.228;2023-02-18T06:51:23;98398.92;;;6.82;48.11
77118;BME280;66072;50.238;19.228;2023-02-18T06:53:51;98399.61;;;6.87;48.32
77118;BME280;66072;50.238;19.228;2023-02-18T06:56:18;98410.11;;;6.88;48.29
77118;BME280;66072;50.238;19.228;2023-02-18T06:58:46;98416.98;;;6.91;48.35
77118;BME280;66072;50.238;19.228;2023-02-18T07:01:13;98421.17;;;6.93;48.02
77118;BME280;66072;50.238;19.228;2023-02-18T07:03:41;98419.14;;;6.98;47.48
77118;BME280;66072;50.238;19.228;2023-02-18T07:06:09;98420.11;;;7.04;48.40
77118;BME280;66072;50.238;19.228;2023-02-18T07:08:37;98418.77;;;7.09;47.64
77118;BME280;66072;50.238;19.228;2023-02-18T07:11:05;98415.99;;;7.16;47.25
77118;BME280;66072;50.238;19.228;2023-02-18T07:13:33;98414.71;;;7.19;46.91
77118;BME280;66072;50.238;19.228;2023-02-18T07:16:00;98420.83;;;7.19;47.25
77118;BME280;66072;50.238;19.228;2023-02-18T07:18:28;98418.92;;;7.20;46.85
77118;BME280;66072;50.238;19.228;2023-02-18T07:20:56;98423.27;;;7.22;47.89
77118;BME280;66072;50.238;19.228;2023-02-18T07:23:23;98427.58;;;7.21;47.34
77118;BME280;66072;50.238;19.228;2023-02-18T07:25:51;98424.83;;;7.21;47.09
77118;BME280;66072;50.238;19.228;2023-02-18T07:28:19;98425.77;;;7.24;47.19
77118;BME280;66072;50.238;19.228;2023-02-18T07:30:46;98428.01;;;7.23;47.60
77118;BME280;66072;50.238;19.228;2023-02-18T07:33:14;98421.45;;;7.21;47.42
77118;BME280;66072;50.238;19.228;2023-02-18T07:35:41;98423.84;;;7.20;47.52
77118;BME280;66072;50.238;19.228;2023-02-18T07:38:09;98420.58;;;7.16;47.62
77118;BME280;66072;50.238;19.228;2023-02-18T07:40:37;98419.63;;;7.14;47.84
77118;BME280;66072;50.238;19.228;2023-02-18T07:43:04;98422.03;;;7.14;47.85
77118;BME280;66072;50.238;19.228;2023-02-18T07:45:32;98422.80;;;7.11;47.59
77118;BME280;66072;50.238;19.228;2023-02-18T07:48:00;98429.77;;;7.12;46.76
77118;BME280;66072;50.238;19.228;2023-02-18T07:50:27;98428.13;;;7.14;46.90
77118;BME280;66072;50.238;19.228;2023-02-18T07:52:55;98426.79;;;7.14;46.66
77118;BME280;66072;50.238;19.228;2023-02-18T07:55:22;98425.59;;;7.14;45.97
77118;BME280;66072;50.238;19.228;2023-02-18T07:57:50;98421.92;;;7.17;46.06
77118;BME280;66072;50.238;19.228;2023-02-18T08:00:17;98428.48;;;7.19;45.87
77118;BME280;66072;50.238;19.228;2023-02-18T08:02:45;98431.39;;;7.23;44.89
77118;BME280;66072;50.238;19.228;2023-02-18T08:05:13;98430.11;;;7.31;45.71
77118;BME280;66072;50.238;19.228;2023-02-18T08:07:40;98436.77;;;7.31;45.84
77118;BME280;66072;50.238;19.228;2023-02-18T08:10:08;98426.17;;;7.27;45.33
77118;BME280;66072;50.238;19.228;2023-02-18T08:12:36;98437.59;;;7.31;46.24
77118;BME280;66072;50.238;19.228;2023-02-18T08:15:04;98436.20;;;7.32;45.73
77118;BME280;66072;50.238;19.228;2023-02-18T08:17:31;98438.81;;;7.40;45.90
77118;BME280;66072;50.238;19.228;2023-02-18T08:19:59;98441.11;;;7.47;45.89
77118;BME280;66072;50.238;19.228;2023-02-18T08:22:27;98430.16;;;7.50;45.47
77118;BME280;66072;50.238;19.228;2023-02-18T08:24:55;98430.52;;;7.54;45.70
77118;BME280;66072;50.238;19.228;2023-02-18T08:27:23;98432.06;;;7.53;46.09
77118;BME280;66072;50.238;19.228;2023-02-18T08:29:51;98420.33;;;7.53;46.04
77118;BME280;66072;50.238;19.228;2023-02-18T08:32:18;98425.18;;;7.51;45.38
77118;BME280;66072;50.238;19.228;2023-02-18T08:34:46;98418.56;;;7.55;45.83
77118;BME280;66072;50.238;19.228;2023-02-18T08:37:13;98426.20;;;7.56;45.98
77118;BME280;66072;50.238;19.228;2023-02-18T08:39:41;98427.46;;;7.54;45.17
77118;BME280;66072;50.238;19.228;2023-02-18T08:42:09;98432.20;;;7.55;45.14
77118;BME280;66072;50.238;19.228;2023-02-18T08:44:37;98431.16;;;7.60;45.73
77118;BME280;66072;50.238;19.228;2023-02-18T08:47:04;98432.91;;;7.58;45.30
77118;BME280;66072;50.238;19.228;2023-02-18T08:49:53;98428.70;;;7.62;45.31
77118;BME280;66072;50.238;19.228;2023-02-18T08:52:21;98438.09;;;7.66;45.18
77118;BME280;66072;50.238;19.228;2023-02-18T08:54:48;98441.46;;;7.67;45.68
77118;BME280;66072;50.238;19.228;2023-02-18T08:57:16;98438.59;;;7.66;45.99
77118;BME280;66072;50.238;19.228;2023-02-18T08:59:45;98443.21;;;7.66;45.60
77118;BME280;66072;50.238;19.228;2023-02-18T09:02:13;98437.86;;;7.72;46.31
77118;BME280;66072;50.238;19.228;2023-02-18T09:04:41;98434.60;;;7.73;46.66
77118;BME280;66072;50.238;19.228;2023-02-18T09:07:08;98427.91;;;7.74;46.31
77118;BME280;66072;50.238;19.228;2023-02-18T09:09:36;98435.55;;;7.80;46.62
77118;BME280;66072;50.238;19.228;2023-02-18T09:12:05;98440.11;;;7.81;46.69
77118;BME280;66072;50.238;19.228;2023-02-18T09:14:33;98440.97;;;7.86;47.79
77118;BME280;66072;50.238;19.228;2023-02-18T09:17:00;98434.66;;;7.91;47.87
77118;BME280;66072;50.238;19.228;2023-02-18T09:19:28;98431.08;;;7.91;47.85
77118;BME280;66072;50.238;19.228;2023-02-18T09:21:56;98431.30;;;7.94;48.46
77118;BME280;66072;50.238;19.228;2023-02-18T09:24:27;98432.02;;;7.97;48.27
77118;BME280;66072;50.238;19.228;2023-02-18T09:26:54;98426.32;;;7.95;48.38
77118;BME280;66072;50.238;19.228;2023-02-18T09:29:22;98427.42;;;7.97;49.12
77118;BME280;66072;50.238;19.228;2023-02-18T09:31:49;98432.50;;;7.99;49.77
77118;BME280;66072;50.238;19.228;2023-02-18T09:34:17;98430.69;;;8.01;50.42
77118;BME280;66072;50.238;19.228;2023-02-18T09:36:46;98436.44;;;8.02;51.17
77118;BME280;66072;50.238;19.228;2023-02-18T09:39:14;98436.03;;;8.04;51.40
77118;BME280;66072;50.238;19.228;2023-02-18T09:41:44;98434.06;;;8.02;51.65
77118;BME280;66072;50.238;19.228;2023-02-18T09:44:20;98429.65;;;8.11;52.51
77118;BME280;66072;50.238;19.228;2023-02-18T09:46:55;98426.09;;;8.15;52.26
77118;BME280;66072;50.238;19.228;2023-02-18T09:49:29;98425.83;;;8.18;52.54
77118;BME280;66072;50.238;19.228;2023-02-18T09:52:03;98419.84;;;8.23;53.00
77118;BME280;66072;50.238;19.228;2023-02-18T09:54:32;98422.42;;;8.37;53.46
77118;BME280;66072;50.238;19.228;2023-02-18T09:57:00;98413.70;;;8.51;53.26
77118;BME280;66072;50.238;19.228;2023-02-18T09:59:29;98407.48;;;8.56;52.77
77118;BME280;66072;50.238;19.228;2023-02-18T10:01:57;98403.09;;;8.52;52.35
77118;BME280;66072;50.238;19.228;2023-02-18T10:04:41;98398.06;;;8.45;52.81
77118;BME280;66072;50.238;19.228;2023-02-18T10:07:27;98400.91;;;8.37;52.80
77118;BME280;66072;50.238;19.228;2023-02-18T10:10:00;98403.00;;;8.26;52.11
77118;BME280;66072;50.238;19.228;2023-02-18T10:12:29;98406.82;;;8.21;52.45
77118;BME280;66072;50.238;19.228;2023-02-18T10:15:01;98409.00;;;8.12;53.35
77118;BME280;66072;50.238;19.228;2023-02-18T10:17:30;98404.83;;;8.00;52.76
77118;BME280;66072;50.238;19.228;2023-02-18T10:19:59;98407.96;;;7.90;52.12
77118;BME280;66072;50.238;19.228;2023-02-18T10:22:31;98414.07;;;7.90;53.21
77118;BME280;66072;50.238;19.228;2023-02-18T10:25:01;98418.30;;;7.82;53.06
77118;BME280;66072;50.238;19.228;2023-02-18T10:27:33;98414.94;;;7.76;54.75
77118;BME280;66072;50.238;19.228;2023-02-18T10:32:45;98429.17;;;7.39;59.80
77118;BME280;66072;50.238;19.228;2023-02-18T10:35:37;98425.69;;;7.26;60.42
77118;BME280;66072;50.238;19.228;2023-02-18T10:51:36;98413.13;;;6.95;63.60
77118;BME280;66072;50.238;19.228;2023-02-18T10:54:06;98406.65;;;7.00;63.88
77118;BME280;66072;50.238;19.228;2023-02-18T10:56:46;98400.25;;;7.04;63.96
77118;BME280;66072;50.238;19.228;2023-02-18T10:59:23;98389.17;;;7.09;64.00
77118;BME280;66072;50.238;19.228;2023-02-18T11:02:13;98393.30;;;7.23;63.74
77118;BME280;66072;50.238;19.228;2023-02-18T11:04:44;98391.55;;;7.30;64.25
77118;BME280;66072;50.238;19.228;2023-02-18T11:07:20;98396.61;;;7.35;64.36
77118;BME280;66072;50.238;19.228;2023-02-18T11:09:53;98388.52;;;7.38;64.22
77118;BME280;66072;50.238;19.228;2023-02-18T11:12:23;98381.39;;;7.38;64.18
77118;BME280;66072;50.238;19.228;2023-02-18T11:17:43;98379.22;;;7.22;65.05
77118;BME280;66072;50.238;19.228;2023-02-18T11:20:31;98378.03;;;7.12;65.74
77118;BME280;66072;50.238;19.228;2023-02-18T11:25:35;98371.64;;;6.94;66.71
77118;BME280;66072;50.238;19.228;2023-02-18T11:30:55;98363.23;;;6.87;67.42
77118;BME280;66072;50.238;19.228;2023-02-18T11:33:37;98356.67;;;6.85;67.86
77118;BME280;66072;50.238;19.228;2023-02-18T11:38:51;98339.25;;;6.71;68.90
77118;BME280;66072;50.238;19.228;2023-02-18T11:41:29;98338.77;;;6.71;69.63
77118;BME280;66072;50.238;19.228;2023-02-18T11:43:58;98343.98;;;6.67;70.07
77118;BME280;66072;50.238;19.228;2023-02-18T11:46:27;98334.80;;;6.68;70.36
77118;BME280;66072;50.238;19.228;2023-02-18T11:48:55;98336.19;;;6.77;70.63
77118;BME280;66072;50.238;19.228;2023-02-18T11:53:58;98328.39;;;6.71;71.55
77118;BME280;66072;50.238;19.228;2023-02-18T11:56:29;98331.13;;;6.60;72.12
77118;BME280;66072;50.238;19.228;2023-02-18T11:58:57;98330.85;;;6.53;73.19
77118;BME280;66072;50.238;19.228;2023-02-18T12:01:51;98323.77;;;6.41;73.26
77118;BME280;66072;50.238;19.228;2023-02-18T12:04:27;98321.73;;;6.36;74.60
77118;BME280;66072;50.238;19.228;2023-02-18T12:07:40;98309.54;;;6.34;74.96
77118;BME280;66072;50.238;19.228;2023-02-18T12:10:33;98300.33;;;6.25;75.64
77118;BME280;66072;50.238;19.228;2023-02-18T12:13:07;98305.41;;;6.14;76.63
77118;BME280;66072;50.238;19.228;2023-02-18T12:15:53;98301.90;;;6.02;77.80
77118;BME280;66072;50.238;19.228;2023-02-18T12:18:44;98292.13;;;5.93;78.68
77118;BME280;66072;50.238;19.228;2023-02-18T12:21:21;98290.52;;;5.78;79.55
77118;BME280;66072;50.238;19.228;2023-02-18T12:27:01;98283.04;;;5.62;80.99
77118;BME280;66072;50.238;19.228;2023-02-18T12:37:44;98254.65;;;5.70;82.95
77118;BME280;66072;50.238;19.228;2023-02-18T12:40:34;98244.88;;;5.68;83.35
77118;BME280;66072;50.238;19.228;2023-02-18T12:46:07;98231.73;;;5.65;83.82
77118;BME280;66072;50.238;19.228;2023-02-18T12:57:21;98180.20;;;5.57;84.80
77118;BME280;66072;50.238;19.228;2023-02-18T13:03:18;98170.59;;;5.50;85.20
77118;BME280;66072;50.238;19.228;2023-02-18T13:12:04;98150.91;;;5.45;85.32
77118;BME280;66072;50.238;19.228;2023-02-18T13:15:05;98153.22;;;5.41;85.82
77118;BME280;66072;50.238;19.228;2023-02-18T13:17:41;98146.56;;;5.37;85.75
77118;BME280;66072;50.238;19.228;2023-02-18T13:20:35;98141.40;;;5.34;85.74
77118;BME280;66072;50.238;19.228;2023-02-18T13:23:06;98129.70;;;5.29;86.01
77118;BME280;66072;50.238;19.228;2023-02-18T13:25:40;98122.77;;;5.28;85.59
77118;BME280;66072;50.238;19.228;2023-02-18T13:28:20;98117.27;;;5.30;85.44
77118;BME280;66072;50.238;19.228;2023-02-18T13:36:32;98094.20;;;5.36;85.55
77118;BME280;66072;50.238;19.228;2023-02-18T13:39:13;98088.43;;;5.36;85.73
77118;BME280;66072;50.238;19.228;2023-02-18T13:41:41;98088.48;;;5.35;85.88
77118;BME280;66072;50.238;19.228;2023-02-18T13:46:54;98077.63;;;5.30;85.99
77118;BME280;66072;50.238;19.228;2023-02-18T13:49:33;98066.48;;;5.28;85.99
77118;BME280;66072;50.238;19.228;2023-02-18T13:52:02;98067.02;;;5.27;86.11
77118;BME280;66072;50.238;19.228;2023-02-18T13:54:35;98055.73;;;5.25;86.22
77118;BME280;66072;50.238;19.228;2023-02-18T13:57:15;98049.66;;;5.24;86.34
77118;BME280;66072;50.238;19.228;2023-02-18T13:59:52;98037.52;;;5.21;86.47
77118;BME280;66072;50.238;19.228;2023-02-18T14:05:13;98032.09;;;5.17;87.34
77118;BME280;66072;50.238;19.228;2023-02-18T14:08:03;98019.84;;;5.13;87.14
77118;BME280;66072;50.238;19.228;2023-02-18T14:10:34;98019.90;;;5.11;87.20
77118;BME280;66072;50.238;19.228;2023-02-18T14:13:25;98017.95;;;5.08;87.59
77118;BME280;66072;50.238;19.228;2023-02-18T14:16:05;98006.73;;;5.04;87.88
77118;BME280;66072;50.238;19.228;2023-02-18T14:23:42;97993.63;;;5.05;88.29
77118;BME280;66072;50.238;19.228;2023-02-18T14:28:48;97990.80;;;4.98;89.10
77118;BME280;66072;50.238;19.228;2023-02-18T14:31:24;97987.73;;;4.94;89.52
77118;BME280;66072;50.238;19.228;2023-02-18T14:51:04;97924.21;;;4.93;88.72
77118;BME280;66072;50.238;19.228;2023-02-18T14:53:35;97907.23;;;4.94;88.88
77118;BME280;66072;50.238;19.228;2023-02-18T14:56:08;97897.13;;;4.92;89.11
77118;BME280;66072;50.238;19.228;2023-02-18T14:58:40;97881.21;;;4.92;89.21
77118;BME280;66072;50.238;19.228;2023-02-18T15:01:20;97870.70;;;4.92;89.42
77118;BME280;66072;50.238;19.228;2023-02-18T15:03:49;97861.16;;;4.93;89.72
77118;BME280;66072;50.238;19.228;2023-02-18T15:08:54;97853.33;;;4.94;89.92
77118;BME280;66072;50.238;19.228;2023-02-18T15:11:25;97849.33;;;4.93;90.00
77118;BME280;66072;50.238;19.228;2023-02-18T15:13:57;97841.77;;;4.90;90.24
77118;BME280;66072;50.238;19.228;2023-02-18T15:16:32;97836.80;;;4.88;90.40
77118;BME280;66072;50.238;19.228;2023-02-18T15:19:04;97829.00;;;4.88;90.41
77118;BME280;66072;50.238;19.228;2023-02-18T15:21:36;97827.13;;;4.88;90.73
77118;BME280;66072;50.238;19.228;2023-02-18T15:24:32;97827.14;;;4.87;91.14
77118;BME280;66072;50.238;19.228;2023-02-18T15:27:03;97821.09;;;4.85;91.06